sensor_id;sensor_type;location;lat;lon;timestamp;P1;durP1;ratioP1;P2;durP2;ratioP2
10031;SDS011;5056;44.272;19.892;2024-01-30T00:01:18;26.38;;;24.85;;
10031;SDS011;5056;44.272;19.892;2024-01-30T00:03:46;24.90;;;23.50;;
10031;SDS011;5056;44.272;19.892;2024-01-30T00:06:18;25.87;;;24.43;;
10031;SDS011;5056;44.272;19.892;2024-01-30T00:08:47;33.13;;;30.90;;
10031;SDS011;5056;44.272;19.892;2024-01-30T00:11:15;26.33;;;24.90;;
10031;SDS011;5056;44.272;19.892;2024-01-30T00:13:42;27.10;;;25.63;;
10031;SDS011;5056;44.272;19.892;2024-01-30T00:16:19;23.70;;;22.37;;
10031;SDS011;5056;44.272;19.892;2024-01-30T00:18:46;28.00;;;26.47;;
10031;SDS011;5056;44.272;19.892;2024-01-30T00:21:13;31.33;;;29.60;;
10031;SDS011;5056;44.272;19.892;2024-01-30T00:23:40;27.20;;;25.70;;
10031;SDS011;5056;44.272;19.892;2024-01-30T00:26:12;22.47;;;21.13;;
10031;SDS011;5056;44.272;19.892;2024-01-30T00:28:40;20.83;;;19.60;;
10031;SDS011;5056;44.272;19.892;2024-01-30T00:31:07;20.67;;;19.27;;
10031;SDS011;5056;44.272;19.892;2024-01-30T00:33:37;24.77;;;23.33;;
10031;SDS011;5056;44.272;19.892;2024-01-30T00:36:04;26.43;;;24.77;;
10031;SDS011;5056;44.272;19.892;2024-01-30T00:38:32;26.47;;;24.80;;
10031;SDS011;5056;44.272;19.892;2024-01-30T00:40:59;21.73;;;20.40;;
10031;SDS011;5056;44.272;19.892;2024-01-30T00:43:28;24.83;;;23.40;;
10031;SDS011;5056;44.272;19.892;2024-01-30T00:45:56;20.37;;;19.13;;
10031;SDS011;5056;44.272;19.892;2024-01-30T00:48:23;23.80;;;22.40;;
10031;SDS011;5056;44.272;19.892;2024-01-30T00:50:50;23.17;;;21.83;;
10031;SDS011;5056;44.272;19.892;2024-01-30T00:53:18;19.23;;;18.07;;
10031;SDS011;5056;44.272;19.892;2024-01-30T00:55:45;25.30;;;23.30;;
10031;SDS011;5056;44.272;19.892;2024-01-30T00:58:13;20.30;;;18.30;;
10031;SDS011;5056;44.272;19.892;2024-01-30T01:00:42;20.33;;;19.10;;
10031;SDS011;5056;44.272;19.892;2024-01-30T01:03:09;28.97;;;27.20;;
10031;SDS011;5056;44.272;19.892;2024-01-30T01:05:36;19.70;;;18.50;;
10031;SDS011;5056;44.272;19.892;2024-01-30T01:08:04;19.57;;;17.57;;
10031;SDS011;5056;44.272;19.892;2024-01-30T01:10:32;20.73;;;19.50;;
10031;SDS011;5056;44.272;19.892;2024-01-30T01:12:59;22.67;;;20.80;;
10031;SDS011;5056;44.272;19.892;2024-01-30T01:15:26;23.17;;;21.90;;
10031;SDS011;5056;44.272;19.892;2024-01-30T01:17:57;19.30;;;17.97;;
10031;SDS011;5056;44.272;19.892;2024-01-30T01:20:24;20.00;;;18.43;;
10031;SDS011;5056;44.272;19.892;2024-01-30T01:22:51;24.02;;;22.27;;
10031;SDS011;5056;44.272;19.892;2024-01-30T01:25:19;20.03;;;18.80;;
10031;SDS011;5056;44.272;19.892;2024-01-30T01:27:46;17.17;;;16.07;;
10031;SDS011;5056;44.272;19.892;2024-01-30T01:30:16;19.03;;;17.80;;
10031;SDS011;5056;44.272;19.892;2024-01-30T01:32:47;18.00;;;16.80;;
10031;SDS011;5056;44.272;19.892;2024-01-30T01:35:21;14.50;;;13.50;;
10031;SDS011;5056;44.272;19.892;2024-01-30T01:37:49;22.30;;;20.70;;
10031;SDS011;5056;44.272;19.892;2024-01-30T01:40:20;20.37;;;18.80;;
10031;SDS011;5056;44.272;19.892;2024-01-30T01:42:50;15.60;;;14.57;;
10031;SDS011;5056;44.272;19.892;2024-01-30T01:45:18;18.57;;;17.43;;
10031;SDS011;5056;44.272;19.892;2024-01-30T01:47:45;22.87;;;21.40;;
10031;SDS011;5056;44.272;19.892;2024-01-30T01:50:15;18.93;;;17.80;;
10031;SDS011;5056;44.272;19.892;2024-01-30T01:52:45;20.30;;;19.10;;
10031;SDS011;5056;44.272;19.892;2024-01-30T01:55:14;19.40;;;18.23;;
10031;SDS011;5056;44.272;19.892;2024-01-30T01:57:42;28.35;;;25.98;;
10031;SDS011;5056;44.272;19.892;2024-01-30T02:00:12;22.87;;;21.53;;
10031;SDS011;5056;44.272;19.892;2024-01-30T02:02:39;22.10;;;20.83;;
10031;SDS011;5056;44.272;19.892;2024-01-30T02:05:07;21.70;;;20.33;;
10031;SDS011;5056;44.272;19.892;2024-01-30T02:07:35;23.53;;;22.30;;
10031;SDS011;5056;44.272;19.892;2024-01-30T02:10:04;26.70;;;25.17;;
10031;SDS011;5056;44.272;19.892;2024-01-30T02:12:31;23.03;;;21.43;;
10031;SDS011;5056;44.272;19.892;2024-01-30T02:14:58;24.63;;;23.23;;
10031;SDS011;5056;44.272;19.892;2024-01-30T02:17:27;25.38;;;24.02;;
10031;SDS011;5056;44.272;19.892;2024-01-30T02:19:54;28.17;;;26.60;;
10031;SDS011;5056;44.272;19.892;2024-01-30T02:22:22;31.40;;;29.30;;
10031;SDS011;5056;44.272;19.892;2024-01-30T02:24:50;33.00;;;30.77;;
10031;SDS011;5056;44.272;19.892;2024-01-30T02:27:18;19.52;;;18.17;;
10031;SDS011;5056;44.272;19.892;2024-01-30T02:29:44;19.07;;;17.97;;
10031;SDS011;5056;44.272;19.892;2024-01-30T02:32:11;15.43;;;14.40;;
10031;SDS011;5056;44.272;19.892;2024-01-30T02:34:38;19.92;;;18.83;;
10031;SDS011;5056;44.272;19.892;2024-01-30T02:37:05;26.15;;;24.73;;
10031;SDS011;5056;44.272;19.892;2024-01-30T02:39:35;18.70;;;17.33;;
10031;SDS011;5056;44.272;19.892;2024-01-30T02:42:02;17.17;;;16.23;;
10031;SDS011;5056;44.272;19.892;2024-01-30T02:44:29;18.00;;;16.90;;
10031;SDS011;5056;44.272;19.892;2024-01-30T02:49:27;30.33;;;28.10;;
10031;SDS011;5056;44.272;19.892;2024-01-30T02:51:55;32.50;;;30.65;;
10031;SDS011;5056;44.272;19.892;2024-01-30T02:54:22;27.50;;;25.83;;
10031;SDS011;5056;44.272;19.892;2024-01-30T02:56:51;27.25;;;25.65;;
10031;SDS011;5056;44.272;19.892;2024-01-30T02:59:18;25.37;;;23.63;;
10031;SDS011;5056;44.272;19.892;2024-01-30T03:01:46;15.30;;;14.53;;
10031;SDS011;5056;44.272;19.892;2024-01-30T03:04:17;17.03;;;15.93;;
10031;SDS011;5056;44.272;19.892;2024-01-30T03:06:47;19.87;;;18.70;;
10031;SDS011;5056;44.272;19.892;2024-01-30T03:09:15;19.43;;;18.17;;
10031;SDS011;5056;44.272;19.892;2024-01-30T03:11:44;19.60;;;18.40;;
10031;SDS011;5056;44.272;19.892;2024-01-30T03:14:12;15.13;;;14.13;;
10031;SDS011;5056;44.272;19.892;2024-01-30T03:16:40;18.83;;;17.70;;
10031;SDS011;5056;44.272;19.892;2024-01-30T03:19:06;17.70;;;16.57;;
10031;SDS011;5056;44.272;19.892;2024-01-30T03:21:34;17.07;;;16.00;;
10031;SDS011;5056;44.272;19.892;2024-01-30T03:24:01;16.37;;;15.27;;
10031;SDS011;5056;44.272;19.892;2024-01-30T03:26:28;16.80;;;15.73;;
10031;SDS011;5056;44.272;19.892;2024-01-30T03:28:57;18.17;;;16.97;;
10031;SDS011;5056;44.272;19.892;2024-01-30T03:31:26;19.20;;;18.00;;
10031;SDS011;5056;44.272;19.892;2024-01-30T03:33:52;49.70;;;21.77;;
10031;SDS011;5056;44.272;19.892;2024-01-30T03:36:21;14.63;;;13.60;;
10031;SDS011;5056;44.272;19.892;2024-01-30T03:38:48;20.17;;;18.90;;
10031;SDS011;5056;44.272;19.892;2024-01-30T03:44:11;16.90;;;15.80;;
10031;SDS011;5056;44.272;19.892;2024-01-30T03:46:40;18.90;;;17.70;;
10031;SDS011;5056;44.272;19.892;2024-01-30T03:51:38;12.33;;;11.47;;
10031;SDS011;5056;44.272;19.892;2024-01-30T03:54:05;11.33;;;10.47;;
10031;SDS011;5056;44.272;19.892;2024-01-30T03:56:35;11.00;;;10.17;;
10031;SDS011;5056;44.272;19.892;2024-01-30T03:59:03;14.10;;;13.10;;
10031;SDS011;5056;44.272;19.892;2024-01-30T04:01:30;12.07;;;11.17;;
10031;SDS011;5056;44.272;19.892;2024-01-30T04:03:59;13.37;;;12.40;;
10031;SDS011;5056;44.272;19.892;2024-01-30T04:06:27;16.47;;;15.20;;
10031;SDS011;5056;44.272;19.892;2024-01-30T04:15:25;16.67;;;15.53;;
10031;SDS011;5056;44.272;19.892;2024-01-30T04:17:52;16.97;;;15.90;;
10031;SDS011;5056;44.272;19.892;2024-01-30T04:20:20;15.10;;;14.13;;
10031;SDS011;5056;44.272;19.892;2024-01-30T04:22:47;17.10;;;16.03;;
10031;SDS011;5056;44.272;19.892;2024-01-30T04:25:20;26.13;;;24.70;;
10031;SDS011;5056;44.272;19.892;2024-01-30T04:27:48;22.93;;;21.60;;
10031;SDS011;5056;44.272;19.892;2024-01-30T04:30:17;25.60;;;24.17;;
10031;SDS011;5056;44.272;19.892;2024-01-30T04:32:43;26.63;;;25.17;;
10031;SDS011;5056;44.272;19.892;2024-01-30T04:35:12;20.97;;;19.73;;
10031;SDS011;5056;44.272;19.892;2024-01-30T04:37:40;26.23;;;24.57;;
10031;SDS011;5056;44.272;19.892;2024-01-30T04:40:08;18.50;;;17.37;;
10031;SDS011;5056;44.272;19.892;2024-01-30T04:42:35;21.60;;;20.37;;
10031;SDS011;5056;44.272;19.892;2024-01-30T04:45:05;21.57;;;20.33;;
10031;SDS011;5056;44.272;19.892;2024-01-30T04:47:32;24.63;;;23.20;;
10031;SDS011;5056;44.272;19.892;2024-01-30T04:49:59;28.80;;;27.23;;
10031;SDS011;5056;44.272;19.892;2024-01-30T04:52:26;22.13;;;20.80;;
10031;SDS011;5056;44.272;19.892;2024-01-30T04:54:57;23.17;;;21.80;;
10031;SDS011;5056;44.272;19.892;2024-01-30T04:57:24;19.67;;;18.53;;
10031;SDS011;5056;44.272;19.892;2024-01-30T04:59:51;20.97;;;19.73;;
10031;SDS011;5056;44.272;19.892;2024-01-30T05:02:18;18.80;;;17.67;;
10031;SDS011;5056;44.272;19.892;2024-01-30T05:04:45;21.37;;;20.13;;
10031;SDS011;5056;44.272;19.892;2024-01-30T05:07:12;22.27;;;21.00;;
10031;SDS011;5056;44.272;19.892;2024-01-30T05:09:39;21.97;;;20.67;;
10031;SDS011;5056;44.272;19.892;2024-01-30T05:12:09;18.07;;;16.93;;
10031;SDS011;5056;44.272;19.892;2024-01-30T05:14:36;18.97;;;17.77;;
10031;SDS011;5056;44.272;19.892;2024-01-30T05:17:05;16.37;;;15.33;;
10031;SDS011;5056;44.272;19.892;2024-01-30T05:19:33;14.70;;;13.70;;
10031;SDS011;5056;44.272;19.892;2024-01-30T05:22:00;17.30;;;16.23;;
10031;SDS011;5056;44.272;19.892;2024-01-30T05:24:26;15.23;;;14.27;;
10031;SDS011;5056;44.272;19.892;2024-01-30T05:26:55;15.70;;;14.70;;
10031;SDS011;5056;44.272;19.892;2024-01-30T05:29:23;16.20;;;15.17;;
10031;SDS011;5056;44.272;19.892;2024-01-30T05:31:50;16.90;;;15.83;;
10031;SDS011;5056;44.272;19.892;2024-01-30T05:34:17;15.63;;;14.60;;
10031;SDS011;5056;44.272;19.892;2024-01-30T05:36:46;25.07;;;23.63;;
10031;SDS011;5056;44.272;19.892;2024-01-30T05:39:13;17.10;;;16.00;;
10031;SDS011;5056;44.272;19.892;2024-01-30T05:41:43;21.90;;;20.33;;
10031;SDS011;5056;44.272;19.892;2024-01-30T05:44:10;15.00;;;14.00;;
10031;SDS011;5056;44.272;19.892;2024-01-30T05:46:40;17.23;;;16.13;;
10031;SDS011;5056;44.272;19.892;2024-01-30T05:49:08;15.27;;;14.33;;
10031;SDS011;5056;44.272;19.892;2024-01-30T05:51:35;16.50;;;15.47;;
10031;SDS011;5056;44.272;19.892;2024-01-30T05:54:02;19.53;;;18.20;;
10031;SDS011;5056;44.272;19.892;2024-01-30T05:56:30;15.37;;;14.37;;
10031;SDS011;5056;44.272;19.892;2024-01-30T05:58:57;14.37;;;13.43;;
10031;SDS011;5056;44.272;19.892;2024-01-30T06:01:24;14.53;;;13.57;;
10031;SDS011;5056;44.272;19.892;2024-01-30T06:03:52;16.97;;;15.93;;
10031;SDS011;5056;44.272;19.892;2024-01-30T06:06:20;28.03;;;26.30;;
10031;SDS011;5056;44.272;19.892;2024-01-30T06:08:47;17.87;;;16.80;;
10031;SDS011;5056;44.272;19.892;2024-01-30T06:11:16;19.27;;;18.07;;
10031;SDS011;5056;44.272;19.892;2024-01-30T06:13:43;19.33;;;18.10;;
10031;SDS011;5056;44.272;19.892;2024-01-30T06:16:22;18.03;;;16.87;;
10031;SDS011;5056;44.272;19.892;2024-01-30T06:18:49;18.13;;;17.00;;
10031;SDS011;5056;44.272;19.892;2024-01-30T06:21:18;18.60;;;17.47;;
10031;SDS011;5056;44.272;19.892;2024-01-30T06:23:45;21.73;;;20.47;;
10031;SDS011;5056;44.272;19.892;2024-01-30T06:26:14;37.87;;;27.93;;
10031;SDS011;5056;44.272;19.892;2024-01-30T06:28:41;17.87;;;16.77;;
10031;SDS011;5056;44.272;19.892;2024-01-30T06:31:08;19.77;;;18.53;;
10031;SDS011;5056;44.272;19.892;2024-01-30T06:33:52;17.37;;;16.20;;
10031;SDS011;5056;44.272;19.892;2024-01-30T06:36:21;21.50;;;19.93;;
10031;SDS011;5056;44.272;19.892;2024-01-30T06:38:48;16.30;;;15.20;;
10031;SDS011;5056;44.272;19.892;2024-01-30T06:41:15;16.60;;;15.50;;
10031;SDS011;5056;44.272;19.892;2024-01-30T06:46:43;17.17;;;16.03;;
10031;SDS011;5056;44.272;19.892;2024-01-30T06:49:10;23.53;;;21.77;;
10031;SDS011;5056;44.272;19.892;2024-01-30T06:51:39;12.23;;;11.30;;
10031;SDS011;5056;44.272;19.892;2024-01-30T06:54:06;36.07;;;23.07;;
10031;SDS011;5056;44.272;19.892;2024-01-30T06:56:34;13.37;;;12.43;;
10031;SDS011;5056;44.272;19.892;2024-01-30T07:02:08;16.43;;;15.27;;
10031;SDS011;5056;44.272;19.892;2024-01-30T07:04:39;13.00;;;12.07;;
10031;SDS011;5056;44.272;19.892;2024-01-30T07:07:08;16.67;;;15.63;;
10031;SDS011;5056;44.272;19.892;2024-01-30T07:09:37;17.83;;;16.70;;
10031;SDS011;5056;44.272;19.892;2024-01-30T07:12:05;19.10;;;17.90;;
10031;SDS011;5056;44.272;19.892;2024-01-30T07:14:32;18.53;;;17.40;;
10031;SDS011;5056;44.272;19.892;2024-01-30T07:19:44;21.63;;;20.20;;
10031;SDS011;5056;44.272;19.892;2024-01-30T07:22:13;19.40;;;18.13;;
10031;SDS011;5056;44.272;19.892;2024-01-30T07:24:42;22.83;;;20.83;;
10031;SDS011;5056;44.272;19.892;2024-01-30T07:27:13;16.23;;;15.20;;
10031;SDS011;5056;44.272;19.892;2024-01-30T07:29:41;15.27;;;14.23;;
10031;SDS011;5056;44.272;19.892;2024-01-30T07:32:08;26.40;;;24.77;;
10031;SDS011;5056;44.272;19.892;2024-01-30T07:34:35;18.10;;;17.10;;
10031;SDS011;5056;44.272;19.892;2024-01-30T07:37:02;26.73;;;25.10;;
10031;SDS011;5056;44.272;19.892;2024-01-30T07:39:31;20.38;;;18.98;;
10031;SDS011;5056;44.272;19.892;2024-01-30T07:42:00;21.93;;;20.10;;
10031;SDS011;5056;44.272;19.892;2024-01-30T07:44:28;22.70;;;21.07;;
10031;SDS011;5056;44.272;19.892;2024-01-30T07:46:55;29.33;;;27.53;;
10031;SDS011;5056;44.272;19.892;2024-01-30T07:49:22;19.43;;;18.33;;
10031;SDS011;5056;44.272;19.892;2024-01-30T07:51:49;34.93;;;29.97;;
10031;SDS011;5056;44.272;19.892;2024-01-30T07:54:16;26.90;;;25.30;;
10031;SDS011;5056;44.272;19.892;2024-01-30T07:56:45;24.37;;;23.13;;
10031;SDS011;5056;44.272;19.892;2024-01-30T07:59:13;23.13;;;21.93;;
10031;SDS011;5056;44.272;19.892;2024-01-30T08:01:39;22.53;;;20.90;;
10031;SDS011;5056;44.272;19.892;2024-01-30T08:04:06;20.10;;;18.63;;
10031;SDS011;5056;44.272;19.892;2024-01-30T08:06:33;21.93;;;20.27;;
10031;SDS011;5056;44.272;19.892;2024-01-30T08:09:00;25.57;;;23.83;;
10031;SDS011;5056;44.272;19.892;2024-01-30T08:11:27;25.87;;;24.40;;
10031;SDS011;5056;44.272;19.892;2024-01-30T08:13:56;28.10;;;26.57;;
10031;SDS011;5056;44.272;19.892;2024-01-30T08:16:24;25.40;;;23.93;;
10031;SDS011;5056;44.272;19.892;2024-01-30T08:18:53;33.90;;;32.07;;
10031;SDS011;5056;44.272;19.892;2024-01-30T08:21:22;37.77;;;35.80;;
10031;SDS011;5056;44.272;19.892;2024-01-30T08:23:49;34.40;;;31.87;;
10031;SDS011;5056;44.272;19.892;2024-01-30T08:26:18;46.57;;;41.93;;
10031;SDS011;5056;44.272;19.892;2024-01-30T08:28:46;22.67;;;21.33;;
10031;SDS011;5056;44.272;19.892;2024-01-30T08:31:14;24.73;;;23.37;;
10031;SDS011;5056;44.272;19.892;2024-01-30T08:33:42;32.93;;;30.73;;
10031;SDS011;5056;44.272;19.892;2024-01-30T08:36:09;25.67;;;24.23;;
10031;SDS011;5056;44.272;19.892;2024-01-30T08:38:36;26.70;;;25.27;;
10031;SDS011;5056;44.272;19.892;2024-01-30T08:41:03;26.43;;;24.93;;
10031;SDS011;5056;44.272;19.892;2024-01-30T08:43:31;29.37;;;27.50;;
10031;SDS011;5056;44.272;19.892;2024-01-30T08:45:59;25.60;;;24.07;;
10031;SDS011;5056;44.272;19.892;2024-01-30T08:48:27;26.13;;;24.60;;
10031;SDS011;5056;44.272;19.892;2024-01-30T08:50:55;31.03;;;29.40;;
10031;SDS011;5056;44.272;19.892;2024-01-30T08:53:23;24.67;;;23.30;;
10031;SDS011;5056;44.272;19.892;2024-01-30T08:55:50;22.63;;;21.33;;
10031;SDS011;5056;44.272;19.892;2024-01-30T08:58:17;23.80;;;22.47;;
10031;SDS011;5056;44.272;19.892;2024-01-30T09:00:45;25.73;;;24.40;;
10031;SDS011;5056;44.272;19.892;2024-01-30T09:03:12;25.10;;;23.80;;
10031;SDS011;5056;44.272;19.892;2024-01-30T09:05:43;30.20;;;28.67;;
10031;SDS011;5056;44.272;19.892;2024-01-30T09:08:10;30.53;;;28.67;;
10031;SDS011;5056;44.272;19.892;2024-01-30T09:10:37;28.50;;;26.97;;
10031;SDS011;5056;44.272;19.892;2024-01-30T09:13:06;21.10;;;20.00;;
10031;SDS011;5056;44.272;19.892;2024-01-30T09:15:34;24.70;;;23.40;;
10031;SDS011;5056;44.272;19.892;2024-01-30T09:18:01;24.30;;;23.03;;
10031;SDS011;5056;44.272;19.892;2024-01-30T09:20:28;22.90;;;21.70;;
10031;SDS011;5056;44.272;19.892;2024-01-30T09:22:56;21.77;;;20.70;;
10031;SDS011;5056;44.272;19.892;2024-01-30T09:25:23;23.43;;;22.20;;
10031;SDS011;5056;44.272;19.892;2024-01-30T09:27:57;25.37;;;23.97;;
10031;SDS011;5056;44.272;19.892;2024-01-30T09:30:27;28.77;;;26.33;;
10031;SDS011;5056;44.272;19.892;2024-01-30T09:32:56;40.57;;;37.67;;
10031;SDS011;5056;44.272;19.892;2024-01-30T09:35:24;26.37;;;24.87;;
10031;SDS011;5056;44.272;19.892;2024-01-30T09:37:53;18.43;;;17.43;;
10031;SDS011;5056;44.272;19.892;2024-01-30T09:40:27;22.90;;;21.63;;
10031;SDS011;5056;44.272;19.892;2024-01-30T09:42:54;30.13;;;28.70;;
10031;SDS011;5056;44.272;19.892;2024-01-30T09:45:23;27.23;;;25.43;;
10031;SDS011;5056;44.272;19.892;2024-01-30T09:47:50;22.97;;;21.83;;
10031;SDS011;5056;44.272;19.892;2024-01-30T09:50:18;26.37;;;25.10;;
10031;SDS011;5056;44.272;19.892;2024-01-30T09:52:45;29.67;;;28.30;;
10031;SDS011;5056;44.272;19.892;2024-01-30T09:55:13;25.73;;;24.30;;
10031;SDS011;5056;44.272;19.892;2024-01-30T09:57:44;29.33;;;27.50;;
10031;SDS011;5056;44.272;19.892;2024-01-30T10:00:12;21.97;;;20.90;;
10031;SDS011;5056;44.272;19.892;2024-01-30T10:02:39;20.57;;;19.57;;
10031;SDS011;5056;44.272;19.892;2024-01-30T10:05:07;24.43;;;23.03;;
10031;SDS011;5056;44.272;19.892;2024-01-30T10:07:35;24.87;;;23.47;;
10031;SDS011;5056;44.272;19.892;2024-01-30T10:10:02;21.00;;;19.80;;
10031;SDS011;5056;44.272;19.892;2024-01-30T10:12:31;21.77;;;20.60;;
10031;SDS011;5056;44.272;19.892;2024-01-30T10:15:00;29.63;;;27.80;;
10031;SDS011;5056;44.272;19.892;2024-01-30T10:17:27;22.77;;;21.17;;
10031;SDS011;5056;44.272;19.892;2024-01-30T10:19:55;39.67;;;31.07;;
10031;SDS011;5056;44.272;19.892;2024-01-30T10:22:22;23.80;;;22.40;;
10031;SDS011;5056;44.272;19.892;2024-01-30T10:24:49;20.50;;;19.37;;
10031;SDS011;5056;44.272;19.892;2024-01-30T10:27:16;19.87;;;18.80;;
10031;SDS011;5056;44.272;19.892;2024-01-30T10:29:43;19.00;;;17.97;;
10031;SDS011;5056;44.272;19.892;2024-01-30T10:32:17;21.63;;;20.47;;
10031;SDS011;5056;44.272;19.892;2024-01-30T10:34:46;22.00;;;20.73;;
10031;SDS011;5056;44.272;19.892;2024-01-30T10:37:13;20.27;;;19.10;;
10031;SDS011;5056;44.272;19.892;2024-01-30T10:39:45;19.33;;;18.13;;
10031;SDS011;5056;44.272;19.892;2024-01-30T10:42:13;19.10;;;18.03;;
10031;SDS011;5056;44.272;19.892;2024-01-30T10:44:44;23.50;;;21.70;;
10031;SDS011;5056;44.272;19.892;2024-01-30T10:47:18;20.90;;;19.53;;
10031;SDS011;5056;44.272;19.892;2024-01-30T10:49:51;21.57;;;20.17;;
10031;SDS011;5056;44.272;19.892;2024-01-30T10:52:19;23.63;;;21.77;;
10031;SDS011;5056;44.272;19.892;2024-01-30T10:54:47;20.83;;;19.43;;
10031;SDS011;5056;44.272;19.892;2024-01-30T10:57:14;21.13;;;19.70;;
10031;SDS011;5056;44.272;19.892;2024-01-30T10:59:42;14.27;;;13.13;;
10031;SDS011;5056;44.272;19.892;2024-01-30T11:02:10;16.03;;;14.83;;
10031;SDS011;5056;44.272;19.892;2024-01-30T11:04:40;15.87;;;14.47;;
10031;SDS011;5056;44.272;19.892;2024-01-30T11:07:14;16.20;;;14.53;;
10031;SDS011;5056;44.272;19.892;2024-01-30T11:09:50;16.20;;;14.93;;
10031;SDS011;5056;44.272;19.892;2024-01-30T11:12:21;12.97;;;11.87;;
10031;SDS011;5056;44.272;19.892;2024-01-30T11:14:49;15.47;;;14.20;;
10031;SDS011;5056;44.272;19.892;2024-01-30T11:17:16;24.63;;;22.73;;
10031;SDS011;5056;44.272;19.892;2024-01-30T11:19:46;13.87;;;12.67;;
10031;SDS011;5056;44.272;19.892;2024-01-30T11:22:12;12.90;;;11.73;;
10031;SDS011;5056;44.272;19.892;2024-01-30T11:24:41;19.17;;;17.73;;
10031;SDS011;5056;44.272;19.892;2024-01-30T11:27:08;19.50;;;17.87;;
10031;SDS011;5056;44.272;19.892;2024-01-30T11:29:36;21.93;;;20.10;;
10031;SDS011;5056;44.272;19.892;2024-01-30T11:32:06;23.03;;;21.07;;
10031;SDS011;5056;44.272;19.892;2024-01-30T11:34:33;21.23;;;19.57;;
10031;SDS011;5056;44.272;19.892;2024-01-30T11:37:06;24.07;;;22.33;;
10031;SDS011;5056;44.272;19.892;2024-01-30T11:39:36;28.50;;;26.67;;
10031;SDS011;5056;44.272;19.892;2024-01-30T11:42:04;19.40;;;18.07;;
10031;SDS011;5056;44.272;19.892;2024-01-30T11:44:34;24.70;;;23.07;;
10031;SDS011;5056;44.272;19.892;2024-01-30T11:47:01;22.33;;;20.83;;
10031;SDS011;5056;44.272;19.892;2024-01-30T11:49:34;19.83;;;18.47;;
10031;SDS011;5056;44.272;19.892;2024-01-30T11:52:05;21.33;;;19.83;;
10031;SDS011;5056;44.272;19.892;2024-01-30T11:54:32;25.60;;;23.97;;
10031;SDS011;5056;44.272;19.892;2024-01-30T11:56:59;40.23;;;36.67;;
10031;SDS011;5056;44.272;19.892;2024-01-30T11:59:26;26.47;;;24.60;;
10031;SDS011;5056;44.272;19.892;2024-01-30T12:01:53;21.93;;;20.33;;
10031;SDS011;5056;44.272;19.892;2024-01-30T12:04:22;19.03;;;17.67;;
10031;SDS011;5056;44.272;19.892;2024-01-30T12:06:51;21.13;;;19.73;;
10031;SDS011;5056;44.272;19.892;2024-01-30T12:09:21;14.63;;;13.50;;
10031;SDS011;5056;44.272;19.892;2024-01-30T12:11:48;23.37;;;21.87;;
10031;SDS011;5056;44.272;19.892;2024-01-30T12:14:16;21.95;;;20.73;;
10031;SDS011;5056;44.272;19.892;2024-01-30T12:16:47;23.03;;;21.57;;
10031;SDS011;5056;44.272;19.892;2024-01-30T12:19:27;17.90;;;16.70;;
10031;SDS011;5056;44.272;19.892;2024-01-30T12:21:54;22.30;;;20.77;;
10031;SDS011;5056;44.272;19.892;2024-01-30T12:24:25;22.45;;;21.15;;
10031;SDS011;5056;44.272;19.892;2024-01-30T12:26:52;25.95;;;24.48;;
10031;SDS011;5056;44.272;19.892;2024-01-30T12:29:19;20.83;;;19.47;;
10031;SDS011;5056;44.272;19.892;2024-01-30T12:31:47;15.23;;;14.10;;
10031;SDS011;5056;44.272;19.892;2024-01-30T12:34:14;15.50;;;14.33;;
10031;SDS011;5056;44.272;19.892;2024-01-30T12:36:42;19.35;;;18.23;;
10031;SDS011;5056;44.272;19.892;2024-01-30T12:39:11;14.47;;;13.33;;
10031;SDS011;5056;44.272;19.892;2024-01-30T12:44:33;16.50;;;15.33;;
10031;SDS011;5056;44.272;19.892;2024-01-30T12:47:02;16.90;;;15.67;;
10031;SDS011;5056;44.272;19.892;2024-01-30T12:49:31;16.27;;;15.13;;
10031;SDS011;5056;44.272;19.892;2024-01-30T12:51:59;17.93;;;16.70;;
10031;SDS011;5056;44.272;19.892;2024-01-30T12:54:26;26.37;;;24.13;;
10031;SDS011;5056;44.272;19.892;2024-01-30T12:56:53;22.13;;;20.73;;
10031;SDS011;5056;44.272;19.892;2024-01-30T12:59:23;20.93;;;19.60;;
10031;SDS011;5056;44.272;19.892;2024-01-30T13:01:50;19.37;;;18.03;;
10031;SDS011;5056;44.272;19.892;2024-01-30T13:04:17;16.63;;;15.50;;
10031;SDS011;5056;44.272;19.892;2024-01-30T13:06:45;27.77;;;25.77;;
10031;SDS011;5056;44.272;19.892;2024-01-30T13:09:12;20.30;;;18.97;;
10031;SDS011;5056;44.272;19.892;2024-01-30T13:11:44;30.02;;;28.40;;
10031;SDS011;5056;44.272;19.892;2024-01-30T13:14:11;26.10;;;24.57;;
10031;SDS011;5056;44.272;19.892;2024-01-30T13:16:40;24.50;;;23.03;;
10031;SDS011;5056;44.272;19.892;2024-01-30T13:19:07;26.40;;;24.93;;
10031;SDS011;5056;44.272;19.892;2024-01-30T13:21:34;25.60;;;24.13;;
10031;SDS011;5056;44.272;19.892;2024-01-30T13:24:01;21.07;;;19.77;;
10031;SDS011;5056;44.272;19.892;2024-01-30T13:26:29;27.23;;;25.70;;
10031;SDS011;5056;44.272;19.892;2024-01-30T13:28:57;28.30;;;26.67;;
10031;SDS011;5056;44.272;19.892;2024-01-30T13:31:25;24.30;;;22.87;;
10031;SDS011;5056;44.272;19.892;2024-01-30T13:33:54;29.00;;;27.43;;
10031;SDS011;5056;44.272;19.892;2024-01-30T13:36:22;25.80;;;24.33;;
10031;SDS011;5056;44.272;19.892;2024-01-30T13:38:49;29.35;;;27.67;;
10031;SDS011;5056;44.272;19.892;2024-01-30T13:41:16;32.37;;;30.57;;
10031;SDS011;5056;44.272;19.892;2024-01-30T13:43:43;31.67;;;29.93;;
10031;SDS011;5056;44.272;19.892;2024-01-30T13:46:10;33.97;;;32.10;;
10031;SDS011;5056;44.272;19.892;2024-01-30T13:48:39;36.67;;;34.95;;
10031;SDS011;5056;44.272;19.892;2024-01-30T13:51:08;39.27;;;37.30;;
10031;SDS011;5056;44.272;19.892;2024-01-30T13:53:36;31.53;;;29.77;;
10031;SDS011;5056;44.272;19.892;2024-01-30T13:56:06;39.90;;;37.85;;
10031;SDS011;5056;44.272;19.892;2024-01-30T13:58:33;33.43;;;31.57;;
10031;SDS011;5056;44.272;19.892;2024-01-30T14:01:02;30.43;;;28.67;;
10031;SDS011;5056;44.272;19.892;2024-01-30T14:03:30;31.70;;;29.87;;
10031;SDS011;5056;44.272;19.892;2024-01-30T14:05:58;30.20;;;28.53;;
10031;SDS011;5056;44.272;19.892;2024-01-30T14:08:27;29.20;;;27.57;;
10031;SDS011;5056;44.272;19.892;2024-01-30T14:10:54;31.83;;;30.07;;
10031;SDS011;5056;44.272;19.892;2024-01-30T14:13:21;32.37;;;30.57;;
10031;SDS011;5056;44.272;19.892;2024-01-30T14:15:50;35.47;;;33.53;;
10031;SDS011;5056;44.272;19.892;2024-01-30T14:18:17;37.00;;;34.70;;
10031;SDS011;5056;44.272;19.892;2024-01-30T14:20:50;34.37;;;32.53;;
10031;SDS011;5056;44.272;19.892;2024-01-30T14:23:17;34.47;;;32.53;;
10031;SDS011;5056;44.272;19.892;2024-01-30T14:25:46;32.20;;;30.47;;
10031;SDS011;5056;44.272;19.892;2024-01-30T14:28:13;33.23;;;31.43;;
10031;SDS011;5056;44.272;19.892;2024-01-30T14:30:41;36.33;;;34.23;;
10031;SDS011;5056;44.272;19.892;2024-01-30T14:33:09;38.10;;;35.77;;
10031;SDS011;5056;44.272;19.892;2024-01-30T14:35:36;35.50;;;33.60;;
10031;SDS011;5056;44.272;19.892;2024-01-30T14:38:05;38.23;;;36.20;;
10031;SDS011;5056;44.272;19.892;2024-01-30T14:40:32;38.23;;;36.20;;
10031;SDS011;5056;44.272;19.892;2024-01-30T14:43:07;36.10;;;34.17;;
10031;SDS011;5056;44.272;19.892;2024-01-30T14:45:41;45.57;;;41.63;;
10031;SDS011;5056;44.272;19.892;2024-01-30T14:48:11;35.67;;;33.77;;
10031;SDS011;5056;44.272;19.892;2024-01-30T14:50:38;38.47;;;36.40;;
10031;SDS011;5056;44.272;19.892;2024-01-30T14:53:05;35.93;;;33.93;;